Time;durP1;ratioP1;P1;durP2;ratioP2;P2;SDS_P1;SDS_P2;PMS_P1;PMS_P2;Temp;Humidity;BMP_temperature;BMP_pressure;BME280_temperature;BME280_humidity;BME280_pressure;Samples;Min_cycle;Max_cycle;Signal;HPM_P1;HPM_P2
2023/01/08 00:00:55;;;;;;;8.13;6.50;;;;;;;4.40;100.00;97651.13;5112816;28;20708;-77
2023/01/08 00:03:21;;;;;;;8.43;6.53;;;;;;;4.38;100.00;97646.91;5113422;28;20208;-78
2023/01/08 00:05:48;;;;;;;8.83;6.93;;;;;;;4.34;100.00;97651.47;5113322;28;20233;-78
2023/01/08 00:08:15;;;;;;;7.97;6.30;;;;;;;4.33;100.00;97631.47;5113020;28;20307;-78
2023/01/08 00:10:42;;;;;;;9.33;6.83;;;;;;;4.40;100.00;97614.50;5112531;28;20688;-78
2023/01/08 00:13:10;;;;;;;8.00;6.53;;;;;;;4.35;100.00;97616.53;5113349;28;20233;-78
2023/01/08 00:15:36;;;;;;;8.70;6.73;;;;;;;4.33;100.00;97623.63;5108460;22;20851;-81
2023/01/08 00:18:03;;;;;;;8.23;6.47;;;;;;;4.37;100.00;97625.16;5072219;28;20210;-81
2023/01/08 00:20:29;;;;;;;9.03;6.30;;;;;;;4.35;100.00;97621.75;5071541;28;20206;-81
2023/01/08 00:22:56;;;;;;;7.37;6.43;;;;;;;4.33;100.00;97613.16;5072017;28;20222;-81
2023/01/08 00:25:22;;;;;;;8.37;6.63;;;;;;;4.30;100.00;97613.34;5072162;28;20228;-80
2023/01/08 00:27:49;;;;;;;9.90;7.03;;;;;;;4.27;100.00;97618.72;5072309;28;20602;-79
2023/01/08 00:30:17;;;;;;;9.37;6.60;;;;;;;4.29;100.00;97618.63;5071479;28;20207;-81
2023/01/08 00:32:43;;;;;;;8.87;7.00;;;;;;;4.34;100.00;97619.25;5071857;28;20250;-82
2023/01/08 00:35:10;;;;;;;9.50;7.00;;;;;;;4.32;100.00;97611.47;5071815;28;20225;-81
2023/01/08 00:37:36;;;;;;;8.80;6.60;;;;;;;4.36;100.00;97605.16;5071741;28;20585;-81
2023/01/08 00:40:03;;;;;;;7.23;6.20;;;;;;;4.38;100.00;97608.53;5071348;28;20283;-81
2023/01/08 00:42:30;;;;;;;6.90;5.83;;;;;;;4.48;100.00;97595.81;5072253;28;20214;-81
2023/01/08 00:44:56;;;;;;;7.57;6.67;;;;;;;4.62;100.00;97594.13;5072124;28;20236;-80
2023/01/08 00:47:24;;;;;;;8.37;6.87;;;;;;;4.65;100.00;97588.72;5071780;28;20228;-80
2023/01/08 00:49:50;;;;;;;9.13;6.87;;;;;;;4.63;100.00;97574.88;5071108;28;20220;-80
2023/01/08 00:52:17;;;;;;;9.47;7.53;;;;;;;4.68;100.00;97567.63;5071745;28;20667;-80
2023/01/08 00:54:43;;;;;;;8.53;6.70;;;;;;;4.63;100.00;97569.66;5071787;28;20239;-80
2023/01/08 00:57:10;;;;;;;10.20;6.90;;;;;;;4.67;100.00;97576.41;5071761;28;20582;-80
2023/01/08 00:59:36;;;;;;;8.20;7.00;;;;;;;4.67;100.00;97576.41;5071102;28;20579;-80
2023/01/08 01:02:03;;;;;;;8.37;6.80;;;;;;;4.68;100.00;97570.25;5071663;28;20207;-80
2023/01/08 01:04:31;;;;;;;8.70;6.40;;;;;;;4.68;100.00;97572.88;5071513;28;20252;-80
2023/01/08 01:06:57;;;;;;;7.93;5.77;;;;;;;4.66;100.00;97572.13;5072007;28;20216;-81
2023/01/08 01:09:24;;;;;;;7.03;6.10;;;;;;;4.68;100.00;97572.88;5070575;28;20215;-80
2023/01/08 01:11:50;;;;;;;7.93;6.20;;;;;;;4.70;100.00;97560.53;5071132;28;20296;-80
2023/01/08 01:14:17;;;;;;;7.83;6.63;;;;;;;4.70;100.00;97555.28;5071322;28;20241;-80
2023/01/08 01:16:43;;;;;;;7.97;6.13;;;;;;;4.67;100.00;97550.25;5071216;28;20240;-81
2023/01/08 01:19:10;;;;;;;7.43;6.10;;;;;;;4.67;100.00;97555.47;5070385;28;20216;-81
2023/01/08 01:21:37;;;;;;;7.50;6.07;;;;;;;4.66;100.00;97553.78;5071402;28;20217;-81
2023/01/08 01:24:06;;;;;;;7.70;6.20;;;;;;;4.68;100.00;97549.31;5071454;28;20203;-81
2023/01/08 01:26:33;;;;;;;7.77;6.03;;;;;;;4.72;100.00;97553.47;5071255;28;20604;-81
2023/01/08 01:29:00;;;;;;;9.10;6.30;;;;;;;4.74;100.00;97566.44;5070557;28;20210;-81
2023/01/08 01:31:29;;;;;;;7.67;6.17;;;;;;;4.77;100.00;97567.09;5071102;28;20215;-81
2023/01/08 01:33:55;;;;;;;8.13;6.00;;;;;;;4.82;100.00;97559.84;5071105;28;20824;-81
2023/01/08 01:36:23;;;;;;;8.80;6.70;;;;;;;4.86;100.00;97544.81;5071335;28;20569;-80
2023/01/08 01:38:53;;;;;;;7.17;6.03;;;;;;;4.87;100.00;97541.25;5070697;28;20205;-82
2023/01/08 01:41:25;;;;;;;8.33;6.80;;;;;;;4.81;100.00;97552.06;5071246;28;20303;-81
2023/01/08 01:43:52;;;;;;;8.27;6.13;;;;;;;4.83;100.00;97556.31;5071279;28;20211;-82
2023/01/08 01:46:26;;;;;;;9.77;6.53;;;;;;;4.81;100.00;97571.25;5071320;28;20229;-80
2023/01/08 01:48:56;;;;;;;9.03;7.00;;;;;;;4.81;100.00;97571.25;5070864;28;20221;-81
2023/01/08 01:51:29;;;;;;;8.53;6.53;;;;;;;4.85;100.00;97572.78;5070966;28;20209;-80
2023/01/08 01:53:57;;;;;;;8.33;7.27;;;;;;;4.88;100.00;97569.16;5071048;28;20225;-81
2023/01/08 01:56:24;;;;;;;7.53;6.50;;;;;;;4.88;100.00;97562.13;5071157;28;20229;-81
2023/01/08 01:58:50;;;;;;;8.10;6.70;;;;;;;4.88;100.00;97558.69;5069516;28;20441;-81
2023/01/08 02:01:17;;;;;;;9.53;7.23;;;;;;;4.87;100.00;97557.81;5067927;28;20699;-81
2023/01/08 02:03:44;;;;;;;8.60;7.30;;;;;;;4.93;100.00;97556.63;5070755;28;20205;-81
2023/01/08 02:06:20;;;;;;;8.63;7.13;;;;;;;4.93;100.00;97559.25;5070650;28;20225;-81
2023/01/08 02:08:59;;;;;;;9.73;7.10;;;;;;;4.94;100.00;97551.31;5070394;28;20595;-80
2023/01/08 02:11:39;;;;;;;9.27;7.07;;;;;;;5.06;100.00;97552.41;5071018;28;20215;-80
2023/01/08 02:14:14;;;;;;;9.10;6.67;;;;;;;5.06;100.00;97537.53;5070702;28;20244;-80
2023/01/08 02:16:49;;;;;;;8.40;6.67;;;;;;;5.09;100.00;97531.28;5070771;28;20217;-80
2023/01/08 02:19:30;;;;;;;9.87;7.40;;;;;;;5.10;100.00;97544.28;5069893;28;20207;-80
2023/01/08 02:22:05;;;;;;;8.70;6.67;;;;;;;5.15;100.00;97529.16;5070854;28;20318;-81
2023/01/08 02:24:48;;;;;;;8.57;7.03;;;;;;;5.24;100.00;97527.78;5073925;28;20229;-80
2023/01/08 02:27:17;;;;;;;7.30;6.30;;;;;;;5.28;100.00;97517.06;5074761;28;20218;-80
2023/01/08 02:29:44;;;;;;;7.77;6.23;;;;;;;5.33;100.00;97498.44;5073719;28;20219;-80
2023/01/08 02:32:11;;;;;;;8.13;6.70;;;;;;;5.40;100.00;97505.84;5074223;28;20666;-82
2023/01/08 02:34:37;;;;;;;9.30;6.60;;;;;;;5.46;100.00;97497.63;5074037;28;20238;-78
2023/01/08 02:37:04;;;;;;;7.20;5.80;;;;;;;5.46;100.00;97491.53;5074294;28;20204;-80
2023/01/08 02:39:49;;;;;;;9.13;6.63;;;;;;;5.52;100.00;97489.41;5073314;28;20211;-81
2023/01/08 02:42:25;;;;;;;7.70;6.03;;;;;;;5.60;100.00;97491.56;5074071;28;20557;-80
2023/01/08 02:44:57;;;;;;;9.83;6.97;;;;;;;5.62;100.00;97485.28;5074598;28;20232;-81
2023/01/08 02:47:32;;;;;;;8.37;7.00;;;;;;;5.62;100.00;97474.81;5074645;28;20356;-80
2023/01/08 02:50:07;;;;;;;8.47;7.07;;;;;;;5.65;100.00;97469.41;5073431;28;20222;-81
2023/01/08 02:52:39;;;;;;;9.73;6.77;;;;;;;5.64;100.00;97457.22;5073802;28;20211;-81
2023/01/08 02:55:08;;;;;;;8.63;6.93;;;;;;;5.68;100.00;97453.47;5073816;28;20244;-81
2023/01/08 02:57:36;;;;;;;8.57;6.57;;;;;;;5.74;100.00;97454.88;5074225;28;20210;-81
2023/01/08 03:00:03;;;;;;;8.20;6.40;;;;;;;5.76;100.00;97450.38;5073271;28;20212;-81
2023/01/08 03:02:33;;;;;;;7.87;6.57;;;;;;;5.79;100.00;97445.78;5073814;28;20237;-82
2023/01/08 03:05:07;;;;;;;7.50;6.70;;;;;;;5.84;100.00;97441.16;5073585;28;20231;-81
2023/01/08 03:07:33;;;;;;;7.97;6.50;;;;;;;5.82;100.00;97450.03;5073663;28;20218;-81
2023/01/08 03:10:00;;;;;;;7.80;6.40;;;;;;;5.83;100.00;97444.72;5073187;28;20208;-81
2023/01/08 03:12:39;;;;;;;8.17;6.53;;;;;;;5.86;100.00;97441.88;5073722;28;20255;-81
2023/01/08 03:15:08;;;;;;;7.73;6.23;;;;;;;5.86;100.00;97435.81;5073421;28;20237;-81
2023/01/08 03:17:39;;;;;;;7.50;6.40;;;;;;;5.87;100.00;97438.31;5073542;28;20219;-81
2023/01/08 03:20:10;;;;;;;7.80;6.20;;;;;;;5.93;100.00;97437.94;5072736;28;20218;-81
2023/01/08 03:22:39;;;;;;;8.33;6.13;;;;;;;5.88;100.00;97433.94;5073581;28;20212;-81
2023/01/08 03:25:08;;;;;;;8.10;6.73;;;;;;;5.79;100.00;97430.06;5073388;28;20602;-80
2023/01/08 03:27:40;;;;;;;8.70;5.80;;;;;;;5.78;100.00;97431.00;5073491;28;20710;-81
2023/01/08 03:30:09;;;;;;;7.67;6.50;;;;;;;5.81;100.00;97432.63;5072707;28;20217;-81
2023/01/08 03:32:39;;;;;;;9.27;6.67;;;;;;;5.79;100.00;97423.97;5073248;28;20211;-81
2023/01/08 03:35:09;;;;;;;7.80;6.13;;;;;;;5.81;100.00;97425.59;5072687;28;20236;-81
2023/01/08 03:37:40;;;;;;;9.80;7.53;;;;;;;5.85;100.00;97418.38;5073147;28;20654;-81
2023/01/08 03:40:12;;;;;;;7.10;5.90;;;;;;;5.85;100.00;97414.00;5072568;28;20230;-81
2023/01/08 03:42:40;;;;;;;9.77;6.50;;;;;;;5.86;100.00;97412.22;5073028;28;20716;-81
2023/01/08 03:45:07;;;;;;;10.27;6.37;;;;;;;5.83;100.00;97408.00;5073455;28;20228;-81
2023/01/08 03:47:37;;;;;;;8.33;6.23;;;;;;;5.85;100.00;97403.50;5073139;28;20218;-81
2023/01/08 03:50:08;;;;;;;8.33;6.47;;;;;;;5.89;100.00;97399.75;5071990;28;20230;-81
2023/01/08 03:52:34;;;;;;;8.03;6.47;;;;;;;5.85;100.00;97403.50;5072858;28;20684;-81
2023/01/08 03:55:01;;;;;;;8.67;6.47;;;;;;;5.89;100.00;97398.91;5072703;28;20235;-81
2023/01/08 03:57:27;;;;;;;8.13;6.07;;;;;;;5.87;100.00;97398.16;5072743;28;20210;-81
2023/01/08 03:59:55;;;;;;;8.53;6.70;;;;;;;5.86;100.00;97394.69;5072042;28;20214;-81
2023/01/08 04:02:22;;;;;;;9.03;6.97;;;;;;;5.84;100.00;97391.34;5072853;28;20289;-80
2023/01/08 04:04:48;;;;;;;8.63;6.70;;;;;;;5.83;100.00;97394.03;5072845;28;20228;-81
2023/01/08 04:07:15;;;;;;;7.43;6.10;;;;;;;5.82;100.00;97381.88;5073149;28;20212;-81
2023/01/08 04:09:41;;;;;;;7.83;5.93;;;;;;;5.82;100.00;97377.50;5071934;28;20214;-80
2023/01/08 04:12:08;;;;;;;7.07;5.90;;;;;;;5.81;100.00;97380.19;5072949;28;20589;-80
2023/01/08 04:14:34;;;;;;;7.97;6.63;;;;;;;5.81;100.00;97381.03;5072788;28;20241;-81
2023/01/08 04:17:02;;;;;;;7.83;6.80;;;;;;;5.89;100.00;97378.78;5072735;28;20215;-81
2023/01/08 04:19:28;;;;;;;8.53;6.47;;;;;;;5.86;100.00;97373.72;5071764;28;20673;-81
2023/01/08 04:21:55;;;;;;;7.17;5.83;;;;;;;5.86;100.00;97372.91;5072659;28;20222;-81
2023/01/08 04:24:21;;;;;;;8.30;6.43;;;;;;;5.87;100.00;97379.81;5072499;28;20206;-81
2023/01/08 04:26:48;;;;;;;6.70;5.90;;;;;;;5.89;100.00;97377.94;5072601;28;20563;-81
2023/01/08 04:29:14;;;;;;;7.50;6.10;;;;;;;5.91;100.00;97382.13;5071441;28;20685;-81
2023/01/08 04:31:41;;;;;;;7.90;6.40;;;;;;;5.92;100.00;97383.81;5072665;28;20215;-81
2023/01/08 04:34:09;;;;;;;8.70;6.53;;;;;;;6.01;100.00;97388.50;5072062;28;20238;-81
2023/01/08 04:36:36;;;;;;;8.07;6.20;;;;;;;6.09;100.00;97383.59;5071945;28;20226;-81
2023/01/08 04:39:02;;;;;;;7.83;6.10;;;;;;;6.08;100.00;97388.94;5071391;28;20217;-80
2023/01/08 04:41:29;;;;;;;6.63;5.70;;;;;;;6.12;100.00;97390.44;5072081;28;20313;-80
2023/01/08 04:43:55;;;;;;;8.23;5.40;;;;;;;6.14;100.00;97384.16;5071922;28;20214;-80
2023/01/08 04:46:22;;;;;;;7.73;5.43;;;;;;;6.19;100.00;97387.34;5071083;28;20238;-80
2023/01/08 04:48:48;;;;;;;7.17;5.97;;;;;;;6.21;100.00;97390.72;5071593;28;20215;-82
2023/01/08 04:51:16;;;;;;;7.10;5.60;;;;;;;6.23;100.00;97388.81;5071734;28;20221;-80
2023/01/08 04:53:44;;;;;;;6.77;5.47;;;;;;;6.28;100.00;97402.50;5071813;28;20221;-80
2023/01/08 04:56:11;;;;;;;6.37;5.70;;;;;;;6.31;100.00;97396.22;5071931;28;20235;-82
2023/01/08 04:58:38;;;;;;;6.53;5.63;;;;;;;6.37;100.00;97383.56;5071840;28;20298;-80
2023/01/08 05:01:10;;;;;;;6.97;5.30;;;;;;;6.42;100.00;97388.50;5071340;28;20210;-80
2023/01/08 05:03:37;;;;;;;6.73;5.27;;;;;;;6.51;100.00;97378.25;5071742;28;20217;-80
2023/01/08 05:06:04;;;;;;;5.47;4.97;;;;;;;6.62;100.00;97375.75;5071571;28;20226;-81
2023/01/08 05:08:32;;;;;;;5.10;4.60;;;;;;;6.77;100.00;97385.25;5079325;28;20207;-80
2023/01/08 05:10:58;;;;;;;5.20;3.90;;;;;;;6.85;100.00;97384.75;5091003;28;20207;-80
2023/01/08 05:13:25;;;;;;;3.93;3.40;;;;;;;6.94;99.94;97392.00;5090822;28;20226;-80
2023/01/08 05:15:51;;;;;;;3.50;2.80;;;;;;;7.10;99.22;97388.28;5091348;28;20509;-80
2023/01/08 05:18:18;;;;;;;3.57;3.10;;;;;;;7.23;99.37;97389.97;5092358;28;20215;-80
2023/01/08 05:20:44;;;;;;;2.90;2.13;;;;;;;7.51;96.96;97394.16;5078914;28;20204;-80
2023/01/08 05:23:11;;;;;;;3.13;2.20;;;;;;;7.75;95.80;97403.84;5072021;28;20218;-81
2023/01/08 05:25:38;;;;;;;3.37;2.33;;;;;;;7.91;95.39;97403.63;5072074;28;20232;-81
2023/01/08 05:28:05;;;;;;;2.37;2.00;;;;;;;8.14;94.41;97400.22;5071651;28;20705;-80
2023/01/08 05:30:31;;;;;;;3.80;2.20;;;;;;;8.34;93.05;97399.66;5070763;28;20583;-80
2023/01/08 05:32:58;;;;;;;3.07;2.30;;;;;;;8.46;92.36;97385.63;5071578;28;20215;-80
2023/01/08 05:35:24;;;;;;;2.20;1.70;;;;;;;8.54;90.93;97386.75;5071417;28;20240;-81
2023/01/08 05:37:51;;;;;;;1.70;1.60;;;;;;;8.63;90.29;97365.00;5071829;28;20227;-81
2023/01/08 05:40:17;;;;;;;2.23;1.67;;;;;;;8.73;90.20;97378.31;5071035;28;20217;-81
2023/01/08 05:42:45;;;;;;;2.17;1.50;;;;;;;8.80;91.10;97379.53;5071418;28;20720;-81
2023/01/08 05:45:12;;;;;;;2.00;1.63;;;;;;;8.79;92.07;97380.50;5071620;28;20233;-81
2023/01/08 05:47:38;;;;;;;2.03;1.60;;;;;;;8.72;92.15;97377.50;5071529;28;20205;-81
2023/01/08 05:50:05;;;;;;;1.60;1.50;;;;;;;8.73;93.22;97383.59;5071169;28;20257;-81
2023/01/08 05:52:32;;;;;;;1.70;1.60;;;;;;;8.75;93.85;97392.25;5071804;28;20230;-81
2023/01/08 05:54:59;;;;;;;1.87;1.50;;;;;;;8.71;95.36;97390.78;5071517;28;20227;-81
2023/01/08 05:57:25;;;;;;;1.40;1.30;;;;;;;8.67;96.09;97394.56;5072784;28;20215;-81
2023/01/08 05:59:53;;;;;;;1.30;1.20;;;;;;;8.61;97.93;97405.56;5074855;28;20214;-81
2023/01/08 06:02:20;;;;;;;1.90;1.60;;;;;;;8.54;100.00;97418.34;5075625;28;20219;-81
2023/01/08 06:04:46;;;;;;;1.40;1.30;;;;;;;8.50;100.00;97408.97;5075307;28;20227;-80
2023/01/08 06:07:12;;;;;;;1.50;1.40;;;;;;;8.51;100.00;97407.19;5075275;28;20209;-80
2023/01/08 06:09:39;;;;;;;1.73;1.30;;;;;;;8.45;100.00;97412.91;5074235;28;20208;-81
2023/01/08 06:12:06;;;;;;;1.60;1.30;;;;;;;8.42;100.00;97413.09;5075136;28;20221;-80
2023/01/08 06:14:32;;;;;;;2.33;1.50;;;;;;;8.42;100.00;97415.75;5074544;28;20231;-80
2023/01/08 06:17:00;;;;;;;2.77;1.40;;;;;;;8.40;100.00;97410.59;5107365;22;20257;-77
2023/01/08 06:19:27;;;;;;;1.37;1.27;;;;;;;8.37;100.00;97397.66;5094148;28;20207;-78
2023/01/08 06:21:53;;;;;;;1.27;1.03;;;;;;;8.39;100.00;97394.91;5094785;28;20674;-77
2023/01/08 06:24:20;;;;;;;1.37;1.20;;;;;;;8.40;100.00;97394.78;5094873;28;20312;-77
2023/01/08 06:26:46;;;;;;;1.37;1.20;;;;;;;8.44;100.00;97398.06;5094673;28;20583;-78
2023/01/08 06:29:13;;;;;;;2.03;1.10;;;;;;;8.40;100.00;97391.31;5093054;28;20729;-79
2023/01/08 06:31:39;;;;;;;1.13;1.03;;;;;;;8.37;100.00;97396.78;5094439;28;20214;-77
2023/01/08 06:34:07;;;;;;;1.20;1.10;;;;;;;8.36;100.00;97388.06;5092197;28;20723;-77
2023/01/08 06:36:33;;;;;;;1.47;1.10;;;;;;;8.39;100.00;97379.13;5093625;28;20620;-78
2023/01/08 06:39:00;;;;;;;1.20;1.10;;;;;;;8.35;100.00;97382.91;5093890;28;20230;-78
2023/01/08 06:41:26;;;;;;;1.27;1.10;;;;;;;8.39;100.00;97387.00;5091939;28;20214;-78
2023/01/08 06:43:53;;;;;;;2.40;1.07;;;;;;;8.37;100.00;97378.38;5092651;28;20660;-78
2023/01/08 06:46:19;;;;;;;1.13;1.00;;;;;;;8.40;100.00;97381.63;5094171;28;20235;-78
2023/01/08 06:48:46;;;;;;;0.90;0.90;;;;;;;8.43;100.00;97370.03;5092666;28;20207;-78
2023/01/08 06:51:14;;;;;;;1.27;0.90;;;;;;;8.44;100.00;97366.47;5091670;28;20210;-78
2023/01/08 06:53:40;;;;;;;1.07;0.83;;;;;;;8.50;100.00;97372.09;5094119;28;20210;-78
2023/01/08 06:56:09;;;;;;;0.93;0.80;;;;;;;8.54;100.00;97380.63;5093571;28;20231;-79
2023/01/08 06:58:37;;;;;;;1.20;0.90;;;;;;;8.54;100.00;97383.25;5091125;28;20300;-79
2023/01/08 07:01:04;;;;;;;1.17;1.00;;;;;;;8.57;100.00;97383.88;5093338;28;20214;-79
2023/01/08 07:03:31;;;;;;;1.63;1.53;;;;;;;8.58;100.00;97390.00;5094155;28;20217;-79
2023/01/08 07:05:57;;;;;;;0.93;0.83;;;;;;;8.63;100.00;97377.34;5093097;28;20223;-79
2023/01/08 07:08:25;;;;;;;0.90;0.90;;;;;;;8.60;100.00;97380.19;5093386;28;20211;-79
2023/01/08 07:10:52;;;;;;;1.30;0.83;;;;;;;8.58;100.00;97379.47;5090393;28;20694;-79
2023/01/08 07:13:18;;;;;;;0.80;0.80;;;;;;;8.63;99.94;97380.78;5092830;28;20202;-79
2023/01/08 07:15:44;;;;;;;0.90;0.90;;;;;;;8.64;99.85;97386.91;5093606;28;20331;-79
2023/01/08 07:18:12;;;;;;;1.70;0.83;;;;;;;8.67;99.60;97370.88;5089728;28;20211;-79
2023/01/08 07:20:39;;;;;;;0.87;0.80;;;;;;;8.63;99.28;97375.53;5089899;28;20698;-79
2023/01/08 07:23:07;;;;;;;0.90;0.80;;;;;;;8.67;99.11;97379.63;5093632;28;20214;-79
2023/01/08 07:25:35;;;;;;;0.80;0.80;;;;;;;8.76;98.72;97378.09;5092358;28;20253;-79
2023/01/08 07:28:01;;;;;;;1.80;0.70;;;;;;;8.79;97.89;97381.34;5091154;28;20222;-79
2023/01/08 07:30:29;;;;;;;0.97;0.70;;;;;;;8.79;98.07;97377.88;5092766;28;20234;-79
2023/01/08 07:32:58;;;;;;;0.83;0.80;;;;;;;8.78;98.42;97384.09;5093214;28;20209;-79
2023/01/08 07:35:25;;;;;;;0.70;0.70;;;;;;;8.71;99.42;97386.34;5090161;28;20756;-80
2023/01/08 07:37:51;;;;;;;0.80;0.70;;;;;;;8.64;100.00;97389.53;5093215;28;20209;-79
2023/01/08 07:40:18;;;;;;;1.30;1.10;;;;;;;8.59;100.00;97391.66;5092421;28;20209;-78
2023/01/08 07:42:46;;;;;;;1.10;0.90;;;;;;;8.57;100.00;97398.84;5090444;28;20212;-83
2023/01/08 07:45:12;;;;;;;0.90;0.90;;;;;;;8.51;100.00;97394.03;5092491;28;20234;-79
2023/01/08 07:47:39;;;;;;;0.93;0.80;;;;;;;8.53;100.00;97392.97;5092906;28;20212;-78
2023/01/08 07:50:06;;;;;;;1.27;0.80;;;;;;;8.48;100.00;97392.47;5090330;28;20593;-78
2023/01/08 07:52:32;;;;;;;1.03;0.93;;;;;;;8.52;100.00;97390.44;5091118;28;20220;-80
2023/01/08 07:54:59;;;;;;;1.07;0.97;;;;;;;8.49;100.00;97386.22;5092700;28;20565;-77
2023/01/08 07:57:25;;;;;;;0.80;0.80;;;;;;;8.51;100.00;97389.59;5091782;28;20212;-79
2023/01/08 07:59:53;;;;;;;0.90;0.87;;;;;;;8.48;100.00;97386.34;5090045;28;20213;-77
2023/01/08 08:02:20;;;;;;;2.00;0.87;;;;;;;8.47;100.00;97392.56;5092589;28;20215;-76
2023/01/08 08:04:46;;;;;;;1.10;1.00;;;;;;;8.44;100.00;97387.53;5092012;28;20549;-77
2023/01/08 08:07:12;;;;;;;1.03;0.93;;;;;;;8.47;100.00;97387.28;5089977;28;20472;-80
2023/01/08 08:09:39;;;;;;;0.80;0.80;;;;;;;8.53;100.00;97386.84;5092267;28;20208;-78
2023/01/08 08:12:06;;;;;;;0.77;0.77;;;;;;;8.52;100.00;97386.00;5092698;28;20207;-80
2023/01/08 08:14:32;;;;;;;1.17;0.87;;;;;;;8.54;100.00;97381.47;5090797;28;20283;-78
2023/01/08 08:17:01;;;;;;;1.00;0.80;;;;;;;8.57;100.00;97388.31;5095155;28;20263;-78
2023/01/08 08:19:27;;;;;;;2.10;0.90;;;;;;;8.55;100.00;97380.53;5102953;28;20211;-77
2023/01/08 08:21:54;;;;;;;0.90;0.87;;;;;;;8.51;100.00;97384.31;5103286;28;20243;-77
2023/01/08 08:24:20;;;;;;;0.80;0.80;;;;;;;8.50;100.00;97387.09;5110802;28;20205;-77
2023/01/08 08:26:47;;;;;;;1.17;0.90;;;;;;;8.45;100.00;97381.31;5116102;28;20219;-78
2023/01/08 08:29:13;;;;;;;1.07;1.00;;;;;;;8.46;100.00;97390.88;5112209;28;20315;-79
2023/01/08 08:31:40;;;;;;;1.13;1.03;;;;;;;8.49;100.00;97382.75;5108887;28;20210;-78
2023/01/08 08:34:08;;;;;;;1.67;1.10;;;;;;;8.49;100.00;97377.47;5099765;28;20202;-78
2023/01/08 08:36:34;;;;;;;1.00;0.90;;;;;;;8.52;100.00;97372.81;5093161;28;20238;-78
2023/01/08 08:39:02;;;;;;;0.87;0.87;;;;;;;8.59;100.00;97366.19;5090176;28;20697;-78
2023/01/08 08:41:29;;;;;;;0.77;0.73;;;;;;;8.59;100.00;97366.19;5093070;28;20287;-79
2023/01/08 08:43:55;;;;;;;1.73;0.97;;;;;;;8.57;100.00;97362.81;5093597;28;20203;-78
2023/01/08 08:46:22;;;;;;;3.30;2.20;;;;;;;8.55;100.00;97358.59;5090210;28;20225;-78
2023/01/08 08:48:49;;;;;;;1.93;0.90;;;;;;;8.60;100.00;97352.06;5094777;28;20206;-78
2023/01/08 08:51:17;;;;;;;1.10;0.80;;;;;;;8.58;100.00;97369.75;5096308;28;20220;-78
2023/01/08 08:53:43;;;;;;;1.63;1.10;;;;;;;8.55;100.00;97358.59;5093824;28;20239;-78
2023/01/08 08:56:10;;;;;;;1.17;0.90;;;;;;;8.57;100.00;97351.44;5096532;28;20236;-79
2023/01/08 08:58:36;;;;;;;2.50;1.00;;;;;;;8.54;100.00;97363.03;5102998;28;20215;-79
2023/01/08 09:01:04;;;;;;;1.00;0.90;;;;;;;8.54;100.00;97351.66;5095669;28;20637;-78
2023/01/08 09:03:31;;;;;;;1.10;1.00;;;;;;;8.51;100.00;97357.16;5089842;28;20435;-80
2023/01/08 09:05:57;;;;;;;1.20;1.10;;;;;;;8.51;100.00;97357.16;5088977;28;20226;-80
2023/01/08 09:08:25;;;;;;;0.97;0.90;;;;;;;8.55;100.00;97355.97;5090280;28;20220;-80
2023/01/08 09:10:52;;;;;;;2.20;1.20;;;;;;;8.53;100.00;97358.72;5089874;28;20215;-80
2023/01/08 09:13:19;;;;;;;1.63;0.97;;;;;;;8.53;100.00;97357.88;5086241;28;20231;-79
2023/01/08 09:15:45;;;;;;;1.90;0.97;;;;;;;8.56;100.00;97363.75;5083612;28;20231;-79
2023/01/08 09:18:12;;;;;;;1.13;1.03;;;;;;;8.53;100.00;97360.50;5090337;28;20219;-79
2023/01/08 09:20:38;;;;;;;1.00;0.90;;;;;;;8.56;100.00;97357.69;5089497;28;20494;-79
2023/01/08 09:23:05;;;;;;;0.90;0.80;;;;;;;8.65;100.00;97355.19;5090428;28;20215;-79
2023/01/08 09:25:33;;;;;;;1.10;1.00;;;;;;;8.64;100.00;97347.41;5090482;28;20224;-79
2023/01/08 09:28:00;;;;;;;1.00;0.87;;;;;;;8.67;100.00;97360.34;5090062;28;20203;-79
2023/01/08 09:30:27;;;;;;;0.87;0.87;;;;;;;8.66;100.00;97354.25;5089792;28;20212;-80
2023/01/08 09:32:57;;;;;;;1.20;1.00;;;;;;;8.67;100.00;97355.06;5090196;28;20211;-79
2023/01/08 09:35:23;;;;;;;1.20;1.10;;;;;;;8.69;100.00;97345.28;5089258;28;20743;-80
2023/01/08 09:37:50;;;;;;;1.40;0.90;;;;;;;8.70;100.00;97342.50;5091076;28;20229;-80
2023/01/08 09:40:17;;;;;;;1.07;1.00;;;;;;;8.71;100.00;97346.00;5089811;28;20211;-80
2023/01/08 09:42:52;;;;;;;1.10;1.00;;;;;;;8.79;100.00;97346.25;5089468;28;20679;-79
2023/01/08 09:45:25;;;;;;;1.03;0.90;;;;;;;8.79;100.00;97338.34;5090008;28;20250;-80
2023/01/08 09:47:52;;;;;;;0.80;0.80;;;;;;;8.76;100.00;97346.50;5090691;28;20210;-80
2023/01/08 09:50:20;;;;;;;1.07;0.90;;;;;;;8.81;100.00;97333.81;5089085;28;20210;-80
2023/01/08 09:52:46;;;;;;;1.10;1.00;;;;;;;8.77;100.00;97338.50;5090565;28;20575;-79
2023/01/08 09:55:15;;;;;;;0.90;0.90;;;;;;;8.78;100.00;97334.03;5089946;28;20247;-79
2023/01/08 09:57:42;;;;;;;1.17;1.07;;;;;;;8.85;100.00;97322.09;5088420;28;20978;-79
2023/01/08 10:00:14;;;;;;;0.80;0.70;;;;;;;8.87;100.00;97325.47;5088306;28;20333;-79
2023/01/08 10:02:41;;;;;;;1.38;0.90;;;;;;;8.99;100.00;97332.44;5089448;28;20428;-79
2023/01/08 10:05:13;;;;;;;1.30;1.20;;;;;;;9.01;100.00;97333.16;5087820;28;20435;-79
2023/01/08 10:07:39;;;;;;;1.63;1.27;;;;;;;9.00;100.00;97334.94;5090578;28;20208;-79
2023/01/08 10:10:18;;;;;;;0.90;0.90;;;;;;;9.03;100.00;97333.88;5087650;28;20208;-81
2023/01/08 10:12:45;;;;;;;1.17;1.00;;;;;;;9.05;100.00;97346.00;5091006;28;20245;-79
2023/01/08 10:15:16;;;;;;;0.80;0.80;;;;;;;9.09;100.00;97330.78;5090743;28;20225;-79
2023/01/08 10:17:46;;;;;;;0.90;0.90;;;;;;;9.07;99.99;97340.59;5091013;28;20241;-77
2023/01/08 10:20:14;;;;;;;1.40;0.90;;;;;;;9.18;100.00;97333.56;5089604;28;20209;-77
2023/01/08 10:22:41;;;;;;;0.97;0.90;;;;;;;9.17;99.65;97345.06;5090625;28;20221;-76
2023/01/08 10:25:11;;;;;;;1.33;1.10;;;;;;;9.18;99.71;97333.56;5089501;28;20226;-77
2023/01/08 10:27:46;;;;;;;1.20;0.83;;;;;;;9.18;98.79;97322.19;5091004;28;20568;-78
2023/01/08 10:30:18;;;;;;;1.00;0.90;;;;;;;9.22;99.09;97328.88;5089739;28;20292;-77
2023/01/08 10:32:48;;;;;;;1.73;0.90;;;;;;;9.28;98.96;97324.00;5090613;28;20248;-79
2023/01/08 10:35:18;;;;;;;1.10;0.90;;;;;;;9.30;98.92;97331.78;5090409;28;20268;-77
2023/01/08 10:37:46;;;;;;;0.90;0.80;;;;;;;9.36;98.18;97316.31;5090349;28;20226;-79
2023/01/08 10:40:28;;;;;;;2.00;0.93;;;;;;;9.40;98.09;97319.56;5089915;28;20314;-79
2023/01/08 10:42:56;;;;;;;1.10;1.00;;;;;;;9.47;97.76;97307.56;5090584;28;20203;-79
2023/01/08 10:45:27;;;;;;;1.10;0.70;;;;;;;9.55;96.90;97299.94;5093064;28;20226;-79
2023/01/08 10:47:58;;;;;;;1.10;0.90;;;;;;;9.53;96.39;97299.19;5094039;28;20222;-79
2023/01/08 10:50:28;;;;;;;0.87;0.83;;;;;;;9.58;96.54;97305.81;5093352;28;20206;-79
2023/01/08 10:52:56;;;;;;;1.67;0.67;;;;;;;9.68;95.72;97295.38;5093994;28;20736;-78
2023/01/08 10:55:25;;;;;;;1.00;0.90;;;;;;;9.62;95.23;97290.56;5094087;28;20226;-78
2023/01/08 10:57:57;;;;;;;1.30;1.00;;;;;;;9.57;95.43;97303.28;5093966;28;20232;-77
2023/01/08 11:00:28;;;;;;;1.00;0.90;;;;;;;9.63;95.35;97302.78;5093121;28;20587;-77
2023/01/08 11:02:56;;;;;;;1.07;0.80;;;;;;;9.66;95.52;97302.56;5094064;28;20208;-79
2023/01/08 11:05:30;;;;;;;2.40;0.90;;;;;;;9.71;95.54;97301.22;5093560;28;20581;-79
2023/01/08 11:07:59;;;;;;;0.80;0.80;;;;;;;9.75;95.58;97289.50;5093544;28;20263;-79
2023/01/08 11:10:27;;;;;;;0.80;0.80;;;;;;;9.82;95.54;97292.47;5093038;28;20209;-78
2023/01/08 11:12:56;;;;;;;1.23;0.90;;;;;;;9.81;96.08;97289.00;5093488;28;20225;-79
2023/01/08 11:15:33;;;;;;;1.17;0.83;;;;;;;9.84;94.48;97280.00;5093394;28;20317;-79
2023/01/08 11:18:11;;;;;;;0.70;0.60;;;;;;;9.97;94.26;97280.69;5093504;28;20228;-79
2023/01/08 11:20:40;;;;;;;0.80;0.70;;;;;;;10.05;93.69;97273.03;5092458;28;20657;-79
2023/01/08 11:23:15;;;;;;;0.60;0.60;;;;;;;10.17;93.14;97272.03;5093420;28;20211;-79
2023/01/08 11:25:44;;;;;;;0.73;0.70;;;;;;;10.17;92.54;97266.75;5093344;28;20233;-79
2023/01/08 11:28:18;;;;;;;1.00;0.90;;;;;;;10.11;92.69;97264.63;5093492;28;20302;-79
2023/01/08 11:30:54;;;;;;;0.93;0.80;;;;;;;10.11;92.78;97260.19;5092598;28;20210;-79
2023/01/08 11:33:26;;;;;;;0.70;0.60;;;;;;;10.13;92.37;97255.63;5093420;28;20214;-79
2023/01/08 11:35:58;;;;;;;0.70;0.60;;;;;;;10.13;93.11;97249.47;5092882;28;20237;-84
2023/01/08 11:38:25;;;;;;;1.10;0.70;;;;;;;10.14;92.12;97251.16;5093544;28;20221;-81